createdAt,value
2023-10-03T00:00:57.883Z,100.00
2023-10-03T00:03:25.969Z,100.00
2023-10-03T00:05:54.112Z,100.00
2023-10-03T00:08:21.872Z,100.00
2023-10-03T00:10:49.874Z,100.00
2023-10-03T00:13:19.315Z,100.00
2023-10-03T00:15:47.227Z,100.00
2023-10-03T00:18:15.608Z,100.00
2023-10-03T00:20:44.191Z,100.00
2023-10-03T00:23:12.252Z,100.00
2023-10-03T00:25:40.247Z,100.00
2023-10-03T00:28:08.566Z,100.00
2023-10-03T00:30:37.496Z,100.00
2023-10-03T00:33:06.926Z,100.00
2023-10-03T00:35:35.955Z,100.00
2023-10-03T00:38:10.472Z,100.00
2023-10-03T00:40:38.295Z,100.00
2023-10-03T00:43:06.016Z,100.00
2023-10-03T00:45:33.929Z,100.00
2023-10-03T00:48:08.421Z,100.00
2023-10-03T00:50:37.134Z,100.00
2023-10-03T00:53:10.438Z,100.00
2023-10-03T00:55:40.088Z,100.00
2023-10-03T00:58:09.204Z,100.00
2023-10-03T01:00:41.657Z,100.00
2023-10-03T01:03:29.814Z,100.00
2023-10-03T01:06:11.396Z,100.00
2023-10-03T01:08:49.251Z,100.00
2023-10-03T01:11:18.964Z,100.00
2023-10-03T01:13:48.916Z,100.00
2023-10-03T01:16:22.494Z,100.00
2023-10-03T01:18:53.770Z,100.00
2023-10-03T01:21:23.104Z,100.00
2023-10-03T01:23:50.882Z,100.00
2023-10-03T01:26:19.572Z,100.00
2023-10-03T01:28:47.380Z,100.00
2023-10-03T01:31:14.981Z,100.00
2023-10-03T01:33:43.543Z,100.00
2023-10-03T01:36:11.945Z,100.00
2023-10-03T01:38:39.836Z,100.00
2023-10-03T01:41:08.971Z,100.00
2023-10-03T01:43:39.907Z,100.00
2023-10-03T01:46:08.926Z,100.00
2023-10-03T01:48:38.406Z,100.00
2023-10-03T01:51:06.688Z,100.00
2023-10-03T01:53:36.274Z,100.00
2023-10-03T01:56:07.372Z,100.00
2023-10-03T01:58:35.711Z,100.00
2023-10-03T02:01:05.451Z,100.00
2023-10-03T02:03:34.654Z,100.00
2023-10-03T02:06:05.268Z,100.00
2023-10-03T02:08:34.672Z,100.00
2023-10-03T02:11:07.451Z,100.00
2023-10-03T02:13:36.363Z,100.00
2023-10-03T02:16:04.467Z,100.00
2023-10-03T02:18:32.552Z,100.00
2023-10-03T02:21:03.497Z,100.00
2023-10-03T02:23:34.224Z,100.00
2023-10-03T02:26:12.175Z,100.00
2023-10-03T02:28:41.491Z,100.00
2023-10-03T02:31:09.603Z,100.00
2023-10-03T02:33:38.778Z,100.00
2023-10-03T02:36:08.011Z,100.00
2023-10-03T02:38:38.692Z,100.00
2023-10-03T02:41:08.631Z,100.00
2023-10-03T02:43:47.073Z,100.00
2023-10-03T02:46:17.858Z,100.00
2023-10-03T02:48:50.470Z,100.00
2023-10-03T02:51:18.393Z,100.00
2023-10-03T02:53:47.581Z,100.00
2023-10-03T02:56:15.996Z,100.00
2023-10-03T02:58:44.782Z,100.00
2023-10-03T03:01:13.067Z,100.00
2023-10-03T03:03:41.074Z,100.00
2023-10-03T03:06:12.730Z,100.00
2023-10-03T03:08:41.718Z,100.00
2023-10-03T03:11:11.533Z,100.00
2023-10-03T03:13:39.640Z,100.00
2023-10-03T03:16:08.067Z,100.00
2023-10-03T03:18:42.356Z,100.00
2023-10-03T03:21:15.920Z,100.00
2023-10-03T03:23:45.133Z,100.00
2023-10-03T03:26:19.937Z,100.00
2023-10-03T03:28:51.140Z,100.00
2023-10-03T03:31:23.684Z,100.00
2023-10-03T03:33:58.392Z,100.00
2023-10-03T03:36:31.250Z,100.00
2023-10-03T03:39:07.079Z,100.00
2023-10-03T03:41:36.179Z,100.00
2023-10-03T03:44:03.991Z,100.00
2023-10-03T03:46:31.661Z,100.00
2023-10-03T03:49:06.067Z,100.00
2023-10-03T03:51:33.889Z,100.00
2023-10-03T03:54:02.222Z,100.00
2023-10-03T03:56:31.454Z,100.00
2023-10-03T03:58:59.219Z,100.00
2023-10-03T04:01:27.154Z,100.00
2023-10-03T04:03:59.691Z,100.00
2023-10-03T04:06:27.489Z,100.00
2023-10-03T04:09:04.651Z,100.00
2023-10-03T04:26:50.032Z,100.00
2023-10-03T04:29:17.812Z,100.00
2023-10-03T04:31:47.916Z,100.00
2023-10-03T04:34:20.279Z,100.00
2023-10-03T04:36:49.079Z,100.00
2023-10-03T04:39:17.183Z,100.00
2023-10-03T04:41:46.277Z,100.00
2023-10-03T04:44:17.497Z,100.00
2023-10-03T04:46:50.006Z,100.00
2023-10-03T04:49:17.825Z,100.00
2023-10-03T04:51:48.300Z,100.00
2023-10-03T04:54:18.025Z,100.00
2023-10-03T04:56:46.699Z,100.00
2023-10-03T04:59:14.746Z,100.00
2023-10-03T05:01:42.494Z,100.00
2023-10-03T05:04:10.219Z,100.00
2023-10-03T05:06:37.847Z,100.00
2023-10-03T05:09:06.380Z,100.00
2023-10-03T05:11:34.463Z,100.00
2023-10-03T05:14:02.628Z,100.00
2023-10-03T05:16:31.186Z,100.00
2023-10-03T05:18:58.990Z,100.00
2023-10-03T05:21:26.598Z,100.00
2023-10-03T05:23:54.347Z,100.00
2023-10-03T05:26:22.682Z,100.00
2023-10-03T05:28:50.278Z,100.00
2023-10-03T05:31:18.736Z,100.00
2023-10-03T05:33:46.462Z,100.00
2023-10-03T05:36:20.399Z,100.00
2023-10-03T05:38:48.145Z,100.00
2023-10-03T05:41:22.728Z,100.00
2023-10-03T05:43:51.136Z,100.00
2023-10-03T05:46:19.039Z,100.00
2023-10-03T05:48:47.202Z,100.00
2023-10-03T05:51:14.837Z,100.00
2023-10-03T05:53:43.402Z,100.00
2023-10-03T05:56:14.312Z,100.00
2023-10-03T05:58:42.988Z,100.00
2023-10-03T06:01:13.610Z,100.00
2023-10-03T06:03:41.695Z,100.00
2023-10-03T06:06:09.587Z,100.00
2023-10-03T06:08:37.342Z,100.00
2023-10-03T06:11:05.478Z,100.00
2023-10-03T06:13:33.023Z,100.00
2023-10-03T06:16:01.411Z,100.00
2023-10-03T06:18:29.467Z,100.00
2023-10-03T06:20:59.707Z,99.90
2023-10-03T06:23:27.659Z,93.40
2023-10-03T06:25:55.470Z,84.99
2023-10-03T06:28:23.151Z,81.58
2023-10-03T06:30:54.247Z,79.52
2023-10-03T06:48:47.660Z,54.28
2023-10-03T06:51:15.395Z,50.85
2023-10-03T06:53:43.137Z,49.78
2023-10-03T06:56:10.931Z,47.12
2023-10-03T06:58:38.613Z,46.43
2023-10-03T07:01:06.372Z,46.58
2023-10-03T07:03:34.196Z,46.54
2023-10-03T07:06:02.139Z,45.38
2023-10-03T07:08:30.302Z,44.19
2023-10-03T07:10:58.736Z,44.19
2023-10-03T07:13:27.594Z,43.12
2023-10-03T07:15:59.872Z,42.34
2023-10-03T07:18:27.823Z,42.49
2023-10-03T07:20:57.398Z,42.12
2023-10-03T07:23:25.638Z,43.19
2023-10-03T07:25:53.629Z,42.78
2023-10-03T07:34:24.218Z,43.36
2023-10-03T07:36:52.065Z,43.18
2023-10-03T07:39:19.829Z,42.62
2023-10-03T07:41:52.579Z,42.28
2023-10-03T07:44:20.946Z,42.77
2023-10-03T07:46:48.821Z,42.76
2023-10-03T07:49:16.828Z,43.08
2023-10-03T07:51:44.584Z,43.37
2023-10-03T07:54:12.741Z,42.99
2023-10-03T07:56:44.047Z,43.12
2023-10-03T07:59:12.083Z,42.08
2023-10-03T08:04:14.466Z,41.58
2023-10-03T08:06:42.758Z,41.43
2023-10-03T08:09:10.988Z,41.01
2023-10-03T08:11:39.134Z,40.94
2023-10-03T08:14:14.923Z,40.53
2023-10-03T08:16:43.192Z,40.35
2023-10-03T08:19:29.029Z,40.89
2023-10-03T08:21:56.856Z,39.99
2023-10-03T08:24:29.883Z,39.63
2023-10-03T08:27:02.578Z,38.96
2023-10-03T08:29:30.430Z,38.84
2023-10-03T08:31:59.171Z,39.40
2023-10-03T08:34:27.379Z,39.28
2023-10-03T08:36:55.787Z,38.98
2023-10-03T08:39:25.072Z,39.07
2023-10-03T08:56:37.394Z,40.79
2023-10-03T09:05:16.853Z,42.37
2023-10-03T09:07:47.679Z,43.39
2023-10-03T09:10:25.418Z,43.92
2023-10-03T09:13:05.445Z,43.23
2023-10-03T09:15:39.031Z,42.94
2023-10-03T09:18:11.771Z,43.02
2023-10-03T09:20:41.327Z,42.84
2023-10-03T09:23:09.204Z,41.59
2023-10-03T09:25:40.571Z,41.77
2023-10-03T09:28:08.899Z,44.59
2023-10-03T09:30:39.496Z,46.13
2023-10-03T09:33:10.779Z,47.29
2023-10-03T09:35:41.373Z,47.43
2023-10-03T09:38:10.703Z,48.81
2023-10-03T09:40:50.978Z,51.71
2023-10-03T09:43:20.976Z,54.50
2023-10-03T09:45:48.925Z,54.11
2023-10-03T09:48:17.334Z,55.88
2023-10-03T09:50:53.382Z,60.03
2023-10-03T09:53:29.157Z,63.85
2023-10-03T09:55:57.495Z,70.39
2023-10-03T09:58:32.838Z,70.36
2023-10-03T10:01:00.841Z,67.03
2023-10-03T10:03:39.221Z,62.66
2023-10-03T10:06:29.886Z,60.78
2023-10-03T10:09:04.095Z,63.41
2023-10-03T10:11:33.385Z,64.72
2023-10-03T10:14:17.922Z,64.78
2023-10-03T10:17:05.119Z,65.42
2023-10-03T10:20:14.926Z,68.02
2023-10-03T10:23:05.996Z,63.72
2023-10-03T10:25:43.555Z,59.65
2023-10-03T10:28:21.857Z,55.31
2023-10-03T10:31:23.345Z,53.43
2023-10-03T10:33:51.939Z,54.46
2023-10-03T10:36:23.803Z,51.23
2023-10-03T10:38:53.728Z,51.68
2023-10-03T10:41:22.508Z,53.59
2023-10-03T10:44:14.553Z,54.94
2023-10-03T10:46:48.870Z,57.45
2023-10-03T10:49:32.328Z,58.99
2023-10-03T10:52:01.615Z,62.11
2023-10-03T10:54:29.563Z,63.89
2023-10-03T10:57:05.565Z,67.36
2023-10-03T10:59:36.935Z,70.70
2023-10-03T11:02:08.832Z,68.34
2023-10-03T11:04:37.559Z,65.99
2023-10-03T11:07:05.328Z,65.00
2023-10-03T11:09:38.435Z,63.82
2023-10-03T11:12:08.279Z,63.60
2023-10-03T11:14:36.195Z,66.60
2023-10-03T11:17:07.959Z,65.95
2023-10-03T11:19:36.074Z,65.17
2023-10-03T11:22:05.547Z,68.44
2023-10-03T11:24:39.378Z,70.12
2023-10-03T11:27:07.518Z,69.25
2023-10-03T11:29:47.950Z,66.09
2023-10-03T11:32:26.496Z,61.45
2023-10-03T11:34:55.230Z,57.45
2023-10-03T11:37:41.042Z,58.35
2023-10-03T11:40:20.199Z,56.86
2023-10-03T11:43:00.670Z,58.77
2023-10-03T11:45:31.812Z,59.58
2023-10-03T11:55:28.856Z,77.16
2023-10-03T11:57:56.651Z,79.39
2023-10-03T12:00:27.575Z,80.82
2023-10-03T12:02:55.482Z,86.72
2023-10-03T12:05:24.576Z,88.80
2023-10-03T12:07:52.671Z,87.91
2023-10-03T12:10:20.768Z,84.27
2023-10-03T12:12:48.531Z,82.22
2023-10-03T12:15:16.289Z,78.14
2023-10-03T12:17:45.633Z,77.49
2023-10-03T12:27:58.066Z,74.85
2023-10-03T12:30:26.587Z,73.32
2023-10-03T12:32:55.465Z,72.10
2023-10-03T12:35:23.498Z,71.83
2023-10-03T12:37:51.301Z,71.09
2023-10-03T12:40:19.794Z,70.42
2023-10-03T12:42:49.444Z,72.78
2023-10-03T12:45:18.690Z,76.29
2023-10-03T12:47:50.268Z,79.39
2023-10-03T12:50:25.161Z,81.47
2023-10-03T12:52:53.545Z,84.25
2023-10-03T12:55:21.706Z,82.02
2023-10-03T13:05:36.627Z,86.95
2023-10-03T13:08:05.151Z,87.43
2023-10-03T13:10:35.773Z,88.13
2023-10-03T13:13:05.701Z,90.01
2023-10-03T13:15:34.524Z,91.54
2023-10-03T13:18:02.640Z,93.96
2023-10-03T13:20:30.996Z,93.90
2023-10-03T13:22:59.165Z,95.14
2023-10-03T13:25:26.746Z,97.66
2023-10-03T13:27:54.796Z,98.65
2023-10-03T13:30:26.701Z,99.88
2023-10-03T13:32:57.118Z,100.00
2023-10-03T13:35:25.256Z,100.00
2023-10-03T13:37:53.108Z,100.00
2023-10-03T13:40:20.769Z,100.00
2023-10-03T13:42:49.886Z,100.00
2023-10-03T13:45:18.572Z,100.00
2023-10-03T13:47:47.269Z,100.00
2023-10-03T13:50:16.751Z,100.00
2023-10-03T13:52:44.719Z,100.00
2023-10-03T13:55:12.621Z,100.00
2023-10-03T13:57:52.023Z,100.00
2023-10-03T14:00:19.925Z,100.00
2023-10-03T14:02:52.078Z,100.00
2023-10-03T14:05:21.067Z,100.00
2023-10-03T14:07:48.784Z,100.00
2023-10-03T14:10:18.950Z,100.00
2023-10-03T14:12:47.332Z,100.00
2023-10-03T14:15:16.462Z,100.00
2023-10-03T14:17:45.751Z,100.00
2023-10-03T14:20:13.946Z,100.00
2023-10-03T14:22:44.716Z,100.00
2023-10-03T14:25:15.409Z,100.00
2023-10-03T14:27:43.972Z,100.00
2023-10-03T14:30:12.223Z,100.00
2023-10-03T14:32:42.857Z,100.00
2023-10-03T14:35:13.808Z,100.00
2023-10-03T14:37:42.456Z,100.00
2023-10-03T14:40:11.689Z,100.00
2023-10-03T14:42:40.070Z,100.00
2023-10-03T14:45:10.416Z,100.00
2023-10-03T14:47:39.054Z,100.00
2023-10-03T14:50:07.845Z,100.00
2023-10-03T14:52:35.711Z,100.00
2023-10-03T14:55:03.518Z,100.00
2023-10-03T14:57:31.357Z,100.00
2023-10-03T14:59:59.314Z,100.00
2023-10-03T15:02:27.220Z,100.00
2023-10-03T15:04:55.125Z,100.00
2023-10-03T15:07:23.029Z,100.00
2023-10-03T15:09:52.110Z,100.00
2023-10-03T15:12:20.203Z,100.00
2023-10-03T15:14:48.067Z,100.00
2023-10-03T15:17:16.824Z,100.00
2023-10-03T15:19:44.607Z,100.00
2023-10-03T15:22:15.102Z,100.00
2023-10-03T15:24:42.808Z,100.00
2023-10-03T15:27:15.422Z,100.00
2023-10-03T15:29:43.153Z,100.00
2023-10-03T15:32:12.370Z,100.00
2023-10-03T15:34:42.261Z,100.00
2023-10-03T15:37:10.435Z,100.00
2023-10-03T15:39:38.191Z,100.00
2023-10-03T15:42:07.071Z,100.00
2023-10-03T15:44:35.280Z,100.00
2023-10-03T15:47:03.142Z,100.00
2023-10-03T15:49:31.292Z,100.00
2023-10-03T15:51:59.003Z,100.00
2023-10-03T15:54:26.650Z,100.00
2023-10-03T15:56:55.627Z,100.00
2023-10-03T15:59:25.166Z,100.00
2023-10-03T16:01:52.886Z,100.00
2023-10-03T16:04:20.927Z,100.00
2023-10-03T16:06:48.951Z,100.00
2023-10-03T16:09:20.593Z,100.00
2023-10-03T16:11:50.106Z,100.00
2023-10-03T16:14:18.017Z,100.00
2023-10-03T16:16:45.823Z,100.00
2023-10-03T16:19:14.576Z,100.00
2023-10-03T16:21:42.688Z,100.00
2023-10-03T16:24:12.171Z,100.00
2023-10-03T16:26:42.425Z,100.00
2023-10-03T16:29:10.530Z,100.00
2023-10-03T16:31:38.604Z,100.00
2023-10-03T16:34:06.365Z,100.00
2023-10-03T16:36:35.450Z,100.00
2023-10-03T16:39:04.301Z,100.00
2023-10-03T16:41:32.807Z,100.00
2023-10-03T16:44:00.519Z,100.00
2023-10-03T16:46:28.488Z,100.00
2023-10-03T16:48:56.828Z,100.00
2023-10-03T16:51:24.701Z,100.00
2023-10-03T16:53:52.741Z,100.00
2023-10-03T16:56:20.618Z,100.00
2023-10-03T16:58:48.459Z,100.00
2023-10-03T17:01:16.310Z,100.00
2023-10-03T17:03:44.316Z,100.00
2023-10-03T17:06:12.719Z,100.00
2023-10-03T17:08:40.643Z,100.00
2023-10-03T17:11:08.414Z,100.00
2023-10-03T17:13:36.192Z,100.00
2023-10-03T17:16:06.038Z,100.00
2023-10-03T17:18:34.309Z,100.00
2023-10-03T17:21:09.513Z,100.00
2023-10-03T17:23:37.301Z,100.00
2023-10-03T17:26:05.449Z,100.00
2023-10-03T17:28:33.410Z,100.00
2023-10-03T17:31:02.303Z,100.00
2023-10-03T17:33:30.366Z,100.00
2023-10-03T17:35:58.361Z,100.00
2023-10-03T17:38:26.029Z,100.00
2023-10-03T17:40:54.417Z,100.00
2023-10-03T17:43:22.257Z,100.00
2023-10-03T17:45:50.025Z,100.00
2023-10-03T17:48:18.385Z,100.00
2023-10-03T17:50:51.073Z,100.00
2023-10-03T17:53:18.971Z,100.00
2023-10-03T17:55:47.333Z,100.00
2023-10-03T17:58:18.175Z,100.00
2023-10-03T18:00:47.714Z,100.00
2023-10-03T18:03:16.313Z,100.00
2023-10-03T18:05:44.475Z,100.00
2023-10-03T18:08:12.391Z,100.00
2023-10-03T18:10:40.144Z,100.00
2023-10-03T18:13:08.019Z,100.00
2023-10-03T18:15:35.909Z,100.00
2023-10-03T18:18:04.332Z,100.00
2023-10-03T18:20:33.424Z,100.00
2023-10-03T18:35:29.691Z,100.00
2023-10-03T18:37:57.565Z,100.00
2023-10-03T18:40:25.476Z,100.00
2023-10-03T18:42:53.386Z,100.00
2023-10-03T18:45:21.333Z,100.00
2023-10-03T18:47:50.355Z,100.00
2023-10-03T18:50:18.077Z,100.00
2023-10-03T18:52:46.204Z,100.00
2023-10-03T18:55:13.954Z,100.00
2023-10-03T18:57:42.096Z,100.00
2023-10-03T19:00:13.331Z,100.00
2023-10-03T19:02:44.376Z,100.00
2023-10-03T19:05:13.283Z,100.00
2023-10-03T19:07:41.242Z,100.00
2023-10-03T19:10:10.711Z,100.00
2023-10-03T19:12:38.747Z,100.00
2023-10-03T19:15:07.229Z,100.00
2023-10-03T19:17:35.178Z,100.00
2023-10-03T19:20:05.189Z,100.00
2023-10-03T19:22:32.894Z,100.00
2023-10-03T19:25:03.368Z,100.00
2023-10-03T19:27:31.480Z,100.00
2023-10-03T19:29:59.287Z,100.00
2023-10-03T19:32:27.277Z,100.00
2023-10-03T19:34:55.037Z,100.00
2023-10-03T19:37:22.845Z,100.00
2023-10-03T19:39:50.706Z,100.00
2023-10-03T19:42:18.546Z,100.00
2023-10-03T19:44:46.763Z,100.00
2023-10-03T19:47:15.872Z,100.00
2023-10-03T19:49:43.730Z,100.00
2023-10-03T19:52:11.380Z,100.00
2023-10-03T19:54:39.136Z,100.00
2023-10-03T19:57:07.480Z,100.00
2023-10-03T19:59:35.181Z,100.00
2023-10-03T20:02:03.932Z,100.00
2023-10-03T20:04:31.873Z,100.00
2023-10-03T20:06:59.882Z,100.00
2023-10-03T20:09:27.762Z,100.00
2023-10-03T20:11:55.600Z,100.00
2023-10-03T20:14:25.442Z,100.00
2023-10-03T20:16:53.223Z,100.00
2023-10-03T20:19:21.285Z,100.00
2023-10-03T20:21:49.464Z,100.00
2023-10-03T20:24:17.858Z,100.00
2023-10-03T20:26:45.871Z,100.00
2023-10-03T20:29:13.576Z,100.00
2023-10-03T20:31:41.688Z,100.00
2023-10-03T20:34:09.338Z,100.00
2023-10-03T20:36:37.107Z,100.00
2023-10-03T20:39:07.096Z,100.00
2023-10-03T20:41:35.054Z,100.00
2023-10-03T20:44:02.886Z,100.00
2023-10-03T20:46:30.791Z,100.00
2023-10-03T20:48:58.693Z,100.00
2023-10-03T20:51:26.603Z,100.00
2023-10-03T20:53:54.593Z,100.00
2023-10-03T20:56:22.769Z,100.00
2023-10-03T20:58:53.196Z,100.00
2023-10-03T21:02:17.221Z,100.00
2023-10-03T21:04:44.861Z,100.00
2023-10-03T21:07:14.149Z,100.00
2023-10-03T21:09:42.370Z,100.00
2023-10-03T21:12:10.365Z,100.00
2023-10-03T21:14:38.310Z,100.00
2023-10-03T21:17:08.470Z,100.00
2023-10-03T21:19:39.603Z,100.00
2023-10-03T21:22:08.423Z,100.00
2023-10-03T21:24:36.127Z,100.00
2023-10-03T21:27:03.964Z,100.00
2023-10-03T21:35:37.428Z,100.00
2023-10-03T21:38:05.132Z,100.00
2023-10-03T21:40:32.891Z,100.00
2023-10-03T21:43:00.967Z,100.00
2023-10-03T21:45:28.789Z,100.00
2023-10-03T21:47:56.662Z,100.00
2023-10-03T21:50:24.546Z,100.00
2023-10-03T21:52:52.213Z,100.00
2023-10-03T21:55:20.640Z,100.00
2023-10-03T21:57:48.816Z,100.00
2023-10-03T22:00:36.151Z,100.00
2023-10-03T22:03:05.171Z,100.00
2023-10-03T22:05:33.557Z,100.00
2023-10-03T22:08:02.205Z,100.00
2023-10-03T22:10:29.824Z,100.00
2023-10-03T22:12:58.539Z,100.00
2023-10-03T22:15:27.604Z,100.00
2023-10-03T22:17:56.928Z,100.00
2023-10-03T22:20:24.908Z,100.00
2023-10-03T22:22:52.442Z,100.00
2023-10-03T22:25:20.055Z,100.00
2023-10-03T22:27:47.622Z,100.00
2023-10-03T22:30:17.656Z,100.00
2023-10-03T22:32:48.654Z,100.00
2023-10-03T22:35:16.399Z,100.00
2023-10-03T22:37:51.023Z,100.00
2023-10-03T22:40:29.870Z,100.00
2023-10-03T22:42:57.854Z,100.00
2023-10-03T22:45:25.430Z,100.00
2023-10-03T22:47:53.700Z,100.00
2023-10-03T22:50:21.384Z,100.00
2023-10-03T22:52:50.148Z,100.00
2023-10-03T22:55:17.865Z,100.00
2023-10-03T22:57:45.456Z,100.00
2023-10-03T23:00:16.127Z,100.00
2023-10-03T23:02:44.038Z,100.00
2023-10-03T23:05:11.609Z,100.00
2023-10-03T23:07:41.088Z,100.00
2023-10-03T23:10:12.148Z,100.00
2023-10-03T23:12:40.410Z,100.00
2023-10-03T23:15:09.615Z,100.00
2023-10-03T23:17:37.403Z,100.00
2023-10-03T23:20:06.321Z,100.00
2023-10-03T23:22:34.686Z,100.00
2023-10-03T23:25:02.558Z,100.00
2023-10-03T23:27:30.378Z,100.00
2023-10-03T23:54:48.919Z,100.00
2023-10-03T23:57:20.477Z,100.00
2023-10-03T23:59:48.400Z,100.00
